createdAt,value
2022-11-15T00:02:06.653Z,62.35
2022-11-15T00:04:53.242Z,62.74
2022-11-15T00:07:55.245Z,62.35
2022-11-15T00:10:42.794Z,62.10
2022-11-15T00:13:30.647Z,62.37
2022-11-15T00:16:19.040Z,62.12
2022-11-15T00:19:05.674Z,62.62
2022-11-15T00:21:52.120Z,62.12
2022-11-15T00:24:38.579Z,62.33
2022-11-15T00:27:25.381Z,62.44
2022-11-15T00:30:13.724Z,61.76
2022-11-15T00:33:05.347Z,62.11
2022-11-15T00:35:51.784Z,61.77
2022-11-15T00:38:39.869Z,62.30
2022-11-15T00:41:26.574Z,62.68
2022-11-15T00:44:13.338Z,62.10
2022-11-15T00:47:02.827Z,62.67
2022-11-15T00:49:58.145Z,62.84
2022-11-15T00:52:51.598Z,63.00
2022-11-15T00:55:47.744Z,63.01
2022-11-15T00:58:34.536Z,62.85
2022-11-15T01:01:21.396Z,63.59
2022-11-15T01:04:08.173Z,63.23
2022-11-15T01:06:56.492Z,63.25
2022-11-15T01:09:43.188Z,63.60
2022-11-15T01:12:29.814Z,63.54
2022-11-15T01:15:16.905Z,63.26
2022-11-15T01:18:03.509Z,63.23
2022-11-15T01:20:50.005Z,63.46
2022-11-15T01:23:39.309Z,64.10
2022-11-15T01:26:27.074Z,63.69
2022-11-15T01:29:13.848Z,64.04
2022-11-15T01:32:00.306Z,64.15
2022-11-15T01:34:48.145Z,64.43
2022-11-15T01:37:35.100Z,64.13
2022-11-15T01:40:24.357Z,63.66
2022-11-15T01:43:30.785Z,64.77
2022-11-15T01:46:36.346Z,64.53
2022-11-15T01:49:25.480Z,64.43
2022-11-15T01:52:15.849Z,64.12
2022-11-15T01:55:09.873Z,65.08
2022-11-15T01:58:04.082Z,65.18
2022-11-15T02:00:51.962Z,65.36
2022-11-15T02:03:44.522Z,65.41
2022-11-15T02:06:31.395Z,65.19
2022-11-15T02:09:19.163Z,65.57
2022-11-15T02:12:07.448Z,66.63
2022-11-15T02:14:57.066Z,67.09
2022-11-15T02:18:01.184Z,66.98
2022-11-15T02:21:12.307Z,67.27
2022-11-15T02:24:19.408Z,67.04
2022-11-15T02:27:56.299Z,67.09
2022-11-15T02:31:17.636Z,67.68
2022-11-15T02:34:28.538Z,68.18
2022-11-15T02:37:30.557Z,67.57
2022-11-15T02:40:29.757Z,67.53
2022-11-15T02:43:45.258Z,68.01
2022-11-15T02:46:57.055Z,67.69
2022-11-15T02:49:47.605Z,68.52
2022-11-15T02:52:33.963Z,68.82
2022-11-15T02:55:35.173Z,68.81
2022-11-15T02:58:41.084Z,68.38
2022-11-15T03:01:41.064Z,68.42
2022-11-15T03:04:40.787Z,68.50
2022-11-15T03:07:31.889Z,68.44
2022-11-15T03:10:26.397Z,68.28
2022-11-15T03:13:23.807Z,68.26
2022-11-15T03:16:22.636Z,68.31
2022-11-15T03:19:31.094Z,68.51
2022-11-15T03:22:28.540Z,68.37
2022-11-15T03:25:31.520Z,68.28
2022-11-15T03:28:23.756Z,67.97
2022-11-15T03:31:26.679Z,67.99
2022-11-15T03:34:23.017Z,67.63
2022-11-15T03:37:12.304Z,68.51
2022-11-15T03:39:59.156Z,68.79
2022-11-15T03:42:55.920Z,70.15
2022-11-15T03:45:48.835Z,70.10
2022-11-15T03:48:40.537Z,69.88
2022-11-15T03:51:28.739Z,69.82
2022-11-15T03:54:16.170Z,69.66
2022-11-15T03:57:02.739Z,69.53
2022-11-15T03:59:49.344Z,69.83
2022-11-15T04:02:36.350Z,69.51
2022-11-15T04:05:25.961Z,68.96
2022-11-15T04:08:21.316Z,69.22
2022-11-15T04:11:26.258Z,68.81
2022-11-15T04:14:17.871Z,68.10
2022-11-15T04:17:26.180Z,67.79
2022-11-15T04:20:34.426Z,67.68
2022-11-15T04:23:41.792Z,67.80
2022-11-15T04:26:28.451Z,67.86
2022-11-15T04:29:32.755Z,68.00
2022-11-15T04:32:19.600Z,68.72
2022-11-15T04:35:06.963Z,69.40
2022-11-15T04:37:54.107Z,69.14
2022-11-15T04:40:42.017Z,69.24
2022-11-15T04:43:28.886Z,69.88
2022-11-15T04:46:16.434Z,70.19
2022-11-15T04:49:03.473Z,69.85
2022-11-15T04:51:49.857Z,69.95
2022-11-15T04:54:36.271Z,69.86
2022-11-15T04:57:24.805Z,69.83
2022-11-15T05:00:20.838Z,69.79
2022-11-15T05:03:27.113Z,69.84
2022-11-15T05:06:40.592Z,70.27
2022-11-15T05:09:27.328Z,70.36
2022-11-15T05:12:14.000Z,70.58
2022-11-15T05:15:02.307Z,70.56
2022-11-15T05:17:48.936Z,70.69
2022-11-15T05:20:35.348Z,70.68
2022-11-15T05:23:22.074Z,71.23
2022-11-15T05:26:09.780Z,71.45
2022-11-15T05:28:56.560Z,71.38
2022-11-15T05:31:44.890Z,71.88
2022-11-15T05:34:31.671Z,72.07
2022-11-15T05:37:18.212Z,72.20
2022-11-15T05:40:05.733Z,72.37
2022-11-15T05:42:52.486Z,72.23
2022-11-15T05:45:39.608Z,72.63
2022-11-15T05:48:28.194Z,72.53
2022-11-15T05:51:19.011Z,72.91
2022-11-15T05:54:16.994Z,73.28
2022-11-15T05:57:18.474Z,73.61
2022-11-15T06:00:07.182Z,73.81
2022-11-15T06:02:53.767Z,73.99
2022-11-15T06:05:41.955Z,74.08
2022-11-15T06:08:29.194Z,74.21
2022-11-15T06:11:16.253Z,74.63
2022-11-15T06:14:03.040Z,74.99
2022-11-15T06:16:49.760Z,75.52
2022-11-15T06:19:36.066Z,76.04
2022-11-15T06:22:23.889Z,76.35
2022-11-15T06:25:10.612Z,76.27
2022-11-15T06:27:59.005Z,76.40
2022-11-15T06:30:50.450Z,76.13
2022-11-15T06:33:40.639Z,75.77
2022-11-15T06:36:26.883Z,76.72
2022-11-15T06:39:14.959Z,76.43
2022-11-15T06:42:01.790Z,76.81
2022-11-15T06:44:54.687Z,76.99
2022-11-15T06:47:49.965Z,77.35
2022-11-15T06:50:36.368Z,77.69
2022-11-15T06:53:23.330Z,77.99
2022-11-15T06:56:11.111Z,77.92
2022-11-15T06:58:57.905Z,78.41
2022-11-15T07:01:44.624Z,79.27
2022-11-15T07:04:31.104Z,79.14
2022-11-15T07:07:17.652Z,79.06
2022-11-15T07:10:05.110Z,78.71
2022-11-15T07:12:53.612Z,78.85
2022-11-15T07:15:40.428Z,78.54
2022-11-15T07:18:28.406Z,79.33
2022-11-15T07:21:15.126Z,79.45
2022-11-15T07:24:01.554Z,79.41
2022-11-15T07:26:48.318Z,80.37
2022-11-15T07:29:36.834Z,80.49
2022-11-15T07:32:23.779Z,80.88
2022-11-15T07:35:26.429Z,80.81
2022-11-15T07:38:13.708Z,81.19
2022-11-15T07:41:02.075Z,81.28
2022-11-15T07:43:48.648Z,81.00
2022-11-15T07:46:36.493Z,81.09
2022-11-15T07:49:23.415Z,81.08
2022-11-15T07:52:10.374Z,81.01
2022-11-15T07:54:56.786Z,80.95
2022-11-15T07:57:43.908Z,80.50
2022-11-15T08:00:30.415Z,80.39
2022-11-15T08:03:19.508Z,80.71
2022-11-15T08:06:07.190Z,80.29
2022-11-15T08:08:53.780Z,80.65
2022-11-15T08:11:40.456Z,80.42
2022-11-15T08:14:27.344Z,80.58
2022-11-15T08:17:14.035Z,80.16
2022-11-15T08:20:02.730Z,80.73
2022-11-15T08:22:49.411Z,80.49
2022-11-15T08:25:47.581Z,80.27
2022-11-15T08:28:34.931Z,80.64
2022-11-15T08:31:22.072Z,80.29
2022-11-15T08:34:09.554Z,80.49
2022-11-15T08:36:57.339Z,80.60
2022-11-15T08:39:44.715Z,79.94
2022-11-15T08:42:31.421Z,80.23
2022-11-15T08:45:17.870Z,80.21
2022-11-15T08:48:05.283Z,80.31
2022-11-15T08:50:56.455Z,80.07
2022-11-15T08:53:45.572Z,79.84
2022-11-15T08:56:32.564Z,79.37
2022-11-15T08:59:18.893Z,79.79
2022-11-15T09:02:05.985Z,80.14
2022-11-15T09:04:52.837Z,80.31
2022-11-15T09:07:39.340Z,79.73
2022-11-15T09:10:27.867Z,80.06
2022-11-15T09:13:23.410Z,79.41
2022-11-15T09:16:13.359Z,79.40
2022-11-15T09:19:00.291Z,79.20
2022-11-15T09:21:47.193Z,78.95
2022-11-15T09:24:33.891Z,78.97
2022-11-15T09:27:21.938Z,78.36
2022-11-15T09:30:09.697Z,78.20
2022-11-15T09:32:56.705Z,78.25
2022-11-15T09:35:43.342Z,78.64
2022-11-15T09:38:30.432Z,78.58
2022-11-15T09:41:45.989Z,78.61
2022-11-15T09:44:46.824Z,78.65
2022-11-15T09:47:48.259Z,78.56
2022-11-15T09:50:44.749Z,78.43
2022-11-15T09:53:16.083Z,78.44
2022-11-15T09:55:53.563Z,77.99
2022-11-15T09:58:29.327Z,77.61
2022-11-15T10:01:02.424Z,77.50
2022-11-15T10:03:44.458Z,77.25
2022-11-15T10:06:30.721Z,77.00
2022-11-15T10:09:04.243Z,76.94
2022-11-15T10:11:38.992Z,77.06
2022-11-15T10:14:14.708Z,76.88
2022-11-15T10:17:17.418Z,76.97
2022-11-15T10:19:54.979Z,76.54
2022-11-15T10:22:42.227Z,76.48
2022-11-15T10:25:22.536Z,76.69
2022-11-15T10:27:56.791Z,77.17
2022-11-15T10:30:33.717Z,76.77
2022-11-15T10:33:16.551Z,76.69
2022-11-15T10:35:44.629Z,76.25
2022-11-15T10:38:13.897Z,76.93
2022-11-15T10:40:47.035Z,76.83
2022-11-15T10:43:19.808Z,76.28
2022-11-15T10:45:50.957Z,76.24
2022-11-15T10:48:29.347Z,76.18
2022-11-15T10:50:58.298Z,75.82
2022-11-15T10:53:33.640Z,75.91
2022-11-15T10:56:19.667Z,75.62
2022-11-15T10:58:55.575Z,75.65
2022-11-15T11:01:25.953Z,75.08
2022-11-15T11:04:03.163Z,75.46
2022-11-15T11:06:32.435Z,75.67
2022-11-15T11:09:02.392Z,76.04
2022-11-15T11:11:49.294Z,76.62
2022-11-15T11:14:26.919Z,76.59
2022-11-15T11:16:59.917Z,76.52
2022-11-15T11:19:46.968Z,76.66
2022-11-15T11:22:24.354Z,77.02
2022-11-15T11:25:15.787Z,77.07
2022-11-15T11:27:55.768Z,77.38
2022-11-15T11:30:32.313Z,77.29
2022-11-15T11:33:12.938Z,77.24
2022-11-15T11:35:52.214Z,77.26
2022-11-15T11:38:36.974Z,77.20
2022-11-15T11:41:20.487Z,77.06
2022-11-15T11:44:06.719Z,76.92
2022-11-15T11:46:58.421Z,76.91
2022-11-15T11:49:34.622Z,76.73
2022-11-15T11:52:10.597Z,76.79
2022-11-15T11:54:50.282Z,77.05
2022-11-15T11:57:27.798Z,76.74
2022-11-15T12:00:01.561Z,76.71
2022-11-15T12:02:33.865Z,76.42
2022-11-15T12:05:10.077Z,76.28
2022-11-15T12:07:42.109Z,75.61
2022-11-15T12:10:22.079Z,75.56
2022-11-15T12:12:57.728Z,74.90
2022-11-15T12:15:29.681Z,74.45
2022-11-15T12:17:59.152Z,74.34
2022-11-15T12:20:29.991Z,74.51
2022-11-15T12:23:03.828Z,74.15
2022-11-15T12:25:36.834Z,73.88
2022-11-15T12:28:14.089Z,73.50
2022-11-15T12:30:58.427Z,72.20
2022-11-15T12:33:35.204Z,71.79
2022-11-15T12:36:05.837Z,71.42
2022-11-15T12:38:57.939Z,71.34
2022-11-15T12:41:27.891Z,70.50
2022-11-15T12:43:57.010Z,70.53
2022-11-15T12:47:02.658Z,70.70
2022-11-15T12:49:47.709Z,70.54
2022-11-15T12:52:17.301Z,70.54
2022-11-15T12:55:07.227Z,70.26
2022-11-15T12:57:43.894Z,70.24
2022-11-15T13:00:41.487Z,70.42
2022-11-15T13:03:30.283Z,70.33
2022-11-15T13:06:08.503Z,69.15
2022-11-15T13:08:42.130Z,69.02
2022-11-15T13:11:28.568Z,68.78
2022-11-15T13:13:57.930Z,68.46
2022-11-15T13:16:27.219Z,68.30
2022-11-15T13:18:56.128Z,67.41
2022-11-15T13:21:44.011Z,66.53
2022-11-15T13:24:17.981Z,65.67
2022-11-15T13:26:46.089Z,65.37
2022-11-15T13:29:20.751Z,65.04
2022-11-15T13:31:49.438Z,65.69
2022-11-15T13:34:51.458Z,65.31
2022-11-15T13:37:32.167Z,65.82
2022-11-15T13:40:20.196Z,65.74
2022-11-15T13:42:48.470Z,65.80
2022-11-15T13:45:21.290Z,66.30
2022-11-15T13:47:55.636Z,66.45
2022-11-15T13:50:27.494Z,66.35
2022-11-15T13:53:04.517Z,65.65
2022-11-15T13:55:37.172Z,65.70
2022-11-15T13:58:14.321Z,65.48
2022-11-15T14:00:54.437Z,65.51
2022-11-15T14:03:33.646Z,64.87
2022-11-15T14:06:19.509Z,64.74
2022-11-15T14:09:23.480Z,65.01
2022-11-15T14:11:56.154Z,64.83
2022-11-15T14:14:43.292Z,64.99
2022-11-15T14:17:36.015Z,64.53
2022-11-15T14:20:20.980Z,64.59
2022-11-15T14:22:56.228Z,64.46
2022-11-15T14:25:25.575Z,64.85
2022-11-15T14:28:30.069Z,64.89
2022-11-15T14:31:01.151Z,64.57
2022-11-15T14:33:33.812Z,64.50
2022-11-15T14:36:13.842Z,64.12
2022-11-15T14:38:49.170Z,64.30
2022-11-15T14:41:30.912Z,64.70
2022-11-15T14:44:14.984Z,64.58
2022-11-15T14:46:48.516Z,64.65
2022-11-15T14:49:24.242Z,64.39
2022-11-15T14:52:00.907Z,64.62
2022-11-15T14:54:43.272Z,64.38
2022-11-15T14:57:21.622Z,64.16
2022-11-15T14:59:54.588Z,63.44
2022-11-15T15:02:29.183Z,63.11
2022-11-15T15:05:02.584Z,62.70
2022-11-15T15:07:42.267Z,62.50
2022-11-15T15:10:38.319Z,62.23
2022-11-15T15:13:00.147Z,62.23
2022-11-15T15:15:34.357Z,62.35
2022-11-15T15:18:02.414Z,62.21
2022-11-15T15:20:32.073Z,62.18
2022-11-15T15:23:05.592Z,62.28
2022-11-15T15:25:35.031Z,61.98
2022-11-15T15:28:03.493Z,62.32
2022-11-15T15:30:35.089Z,62.54
2022-11-15T15:33:03.639Z,62.94
2022-11-15T15:35:35.695Z,63.00
2022-11-15T15:38:05.690Z,63.46
2022-11-15T15:40:35.103Z,63.55
2022-11-15T15:43:03.660Z,63.81
2022-11-15T15:45:33.273Z,64.19
2022-11-15T15:48:01.732Z,64.19
2022-11-15T15:50:32.183Z,64.25
2022-11-15T15:53:09.113Z,64.35
2022-11-15T15:56:16.205Z,64.16
2022-11-15T15:58:44.736Z,64.36
2022-11-15T16:01:16.162Z,64.53
2022-11-15T16:03:44.674Z,64.25
2022-11-15T16:06:35.761Z,64.39
2022-11-15T16:09:15.199Z,64.21
2022-11-15T16:11:45.980Z,64.31
2022-11-15T16:14:14.960Z,64.64
2022-11-15T16:16:43.857Z,64.48
2022-11-15T16:19:13.304Z,64.66
2022-11-15T16:21:41.437Z,65.09
2022-11-15T16:24:11.256Z,64.63
2022-11-15T16:26:40.041Z,64.81
2022-11-15T16:29:10.150Z,65.07
2022-11-15T16:31:38.176Z,64.79
2022-11-15T16:34:07.232Z,65.04
2022-11-15T16:36:36.802Z,64.93
2022-11-15T16:39:05.269Z,64.44
2022-11-15T16:41:35.089Z,64.61
2022-11-15T16:44:03.091Z,64.61
2022-11-15T16:46:31.121Z,64.48
2022-11-15T16:48:59.328Z,64.51
2022-11-15T16:51:27.431Z,64.19
2022-11-15T16:53:55.491Z,64.21
2022-11-15T16:56:27.021Z,64.29
2022-11-15T16:58:58.562Z,63.79
2022-11-15T17:01:28.187Z,63.89
2022-11-15T17:03:56.782Z,63.71
2022-11-15T17:06:26.898Z,63.74
2022-11-15T17:08:56.598Z,63.19
2022-11-15T17:11:24.629Z,62.84
2022-11-15T17:13:53.283Z,63.19
2022-11-15T17:16:22.951Z,62.78
2022-11-15T17:18:53.342Z,62.52
2022-11-15T17:21:23.163Z,62.23
2022-11-15T17:23:51.146Z,62.04
2022-11-15T17:26:39.180Z,61.46
2022-11-15T17:29:08.893Z,61.10
2022-11-15T17:31:38.898Z,60.55
2022-11-15T17:34:08.371Z,60.16
2022-11-15T17:36:36.987Z,59.86
2022-11-15T17:39:05.537Z,59.49
2022-11-15T17:41:33.861Z,59.36
2022-11-15T17:44:03.790Z,59.26
2022-11-15T17:46:36.464Z,59.03
2022-11-15T17:49:06.273Z,59.04
2022-11-15T17:51:34.598Z,59.38
2022-11-15T17:54:03.803Z,59.17
2022-11-15T17:56:33.714Z,58.57
2022-11-15T17:59:02.303Z,58.85
2022-11-15T18:01:32.198Z,59.11
2022-11-15T18:04:02.175Z,58.87
2022-11-15T18:06:33.909Z,58.95
2022-11-15T18:09:02.315Z,58.97
2022-11-15T18:11:32.973Z,58.68
2022-11-15T18:14:04.468Z,58.52
2022-11-15T18:16:35.316Z,58.48
2022-11-15T18:19:08.901Z,58.47
2022-11-15T18:21:56.691Z,58.47
2022-11-15T18:24:26.060Z,58.59
2022-11-15T18:26:54.662Z,58.67
2022-11-15T18:29:24.584Z,58.55
2022-11-15T18:31:55.744Z,58.63
2022-11-15T18:34:24.777Z,58.76
2022-11-15T18:36:54.773Z,58.62
2022-11-15T18:39:22.962Z,59.28
2022-11-15T18:41:51.775Z,58.40
2022-11-15T18:44:19.989Z,58.13
2022-11-15T18:46:51.173Z,58.38
2022-11-15T18:49:20.297Z,58.37
2022-11-15T18:51:49.559Z,58.66
2022-11-15T18:54:19.161Z,58.39
2022-11-15T18:56:47.721Z,58.38
2022-11-15T18:59:16.800Z,58.64
2022-11-15T19:01:48.320Z,58.45
2022-11-15T19:04:18.565Z,58.38
2022-11-15T19:06:48.735Z,59.01
2022-11-15T19:09:19.925Z,58.77
2022-11-15T19:11:51.593Z,58.57
2022-11-15T19:14:24.347Z,58.62
2022-11-15T19:16:54.671Z,58.35
2022-11-15T19:19:25.226Z,57.98
2022-11-15T19:21:54.119Z,58.17
2022-11-15T19:24:23.428Z,58.30
2022-11-15T19:26:51.590Z,57.89
2022-11-15T19:29:19.613Z,57.78
2022-11-15T19:31:48.853Z,57.82
2022-11-15T19:34:17.931Z,57.51
2022-11-15T19:36:46.492Z,57.28
2022-11-15T19:39:18.040Z,57.31
2022-11-15T19:41:47.850Z,57.44
2022-11-15T19:44:16.593Z,57.07
2022-11-15T19:46:45.382Z,57.16
2022-11-15T19:49:14.633Z,57.51
2022-11-15T19:51:45.601Z,57.44
2022-11-15T19:54:14.036Z,57.55
2022-11-15T19:56:42.163Z,56.98
2022-11-15T19:59:13.545Z,57.28
2022-11-15T20:01:42.571Z,56.99
2022-11-15T20:04:10.912Z,57.15
2022-11-15T20:06:41.295Z,56.93
2022-11-15T20:09:12.401Z,57.12
2022-11-15T20:11:40.323Z,57.40
2022-11-15T20:14:09.738Z,57.19
2022-11-15T20:16:39.331Z,57.29
2022-11-15T20:19:08.664Z,57.45
2022-11-15T20:21:37.051Z,57.60
2022-11-15T20:24:05.744Z,57.65
2022-11-15T20:26:35.617Z,57.89
2022-11-15T20:29:04.023Z,57.54
2022-11-15T20:31:33.078Z,57.66
2022-11-15T20:34:02.529Z,57.81
2022-11-15T20:36:30.468Z,58.19
2022-11-15T20:38:59.735Z,57.83
2022-11-15T20:41:28.554Z,57.93
2022-11-15T20:43:56.723Z,57.96
2022-11-15T20:46:24.676Z,58.27
2022-11-15T20:48:52.646Z,58.69
2022-11-15T20:51:22.227Z,58.37
2022-11-15T20:53:50.752Z,58.55
2022-11-15T20:56:21.156Z,58.96
2022-11-15T20:58:50.805Z,59.26
2022-11-15T21:01:23.741Z,59.29
2022-11-15T21:03:53.686Z,59.44
2022-11-15T21:06:24.460Z,59.56
2022-11-15T21:09:11.441Z,59.88
2022-11-15T21:11:57.799Z,59.76
2022-11-15T21:14:26.251Z,60.21
2022-11-15T21:16:54.318Z,60.28
2022-11-15T21:19:28.779Z,60.67
2022-11-15T21:22:02.576Z,61.17
2022-11-15T21:24:31.222Z,61.37
2022-11-15T21:26:59.824Z,61.89
2022-11-15T21:29:28.604Z,62.60
2022-11-15T21:31:56.691Z,63.38
2022-11-15T21:34:24.978Z,63.49
2022-11-15T21:36:53.107Z,63.98
2022-11-15T21:39:22.421Z,64.38
2022-11-15T21:41:50.293Z,64.60
2022-11-15T21:44:18.392Z,64.89
2022-11-15T21:46:46.371Z,65.06
2022-11-15T21:49:14.351Z,65.51
2022-11-15T21:51:42.312Z,65.91
2022-11-15T21:54:10.437Z,66.05
2022-11-15T21:56:39.891Z,66.62
2022-11-15T21:59:07.840Z,66.74
2022-11-15T22:01:53.732Z,67.15
2022-11-15T22:04:24.015Z,67.45
2022-11-15T22:06:52.354Z,67.72
2022-11-15T22:09:20.586Z,67.67
2022-11-15T22:11:50.137Z,67.64
2022-11-15T22:14:18.468Z,67.84
2022-11-15T22:16:46.774Z,68.31
2022-11-15T22:19:15.224Z,68.05
2022-11-15T22:21:43.232Z,68.36
2022-11-15T22:24:11.607Z,68.48
2022-11-15T22:26:39.633Z,68.82
2022-11-15T22:29:08.938Z,69.09
2022-11-15T22:31:36.943Z,69.10
2022-11-15T22:34:05.075Z,69.34
2022-11-15T22:36:47.008Z,69.60
2022-11-15T22:39:21.096Z,69.01
2022-11-15T22:41:49.088Z,69.47
2022-11-15T22:44:18.394Z,69.59
2022-11-15T22:46:46.440Z,69.95
2022-11-15T22:49:14.948Z,69.48
2022-11-15T22:51:42.906Z,69.63
2022-11-15T22:54:10.835Z,69.63
2022-11-15T22:56:38.930Z,69.94
2022-11-15T22:59:07.199Z,69.62
2022-11-15T23:01:36.629Z,70.14
2022-11-15T23:04:04.925Z,70.25
2022-11-15T23:06:33.144Z,70.40
2022-11-15T23:09:01.115Z,70.35
2022-11-15T23:11:46.460Z,70.77
2022-11-15T23:14:14.844Z,70.92
2022-11-15T23:16:44.813Z,70.91
2022-11-15T23:19:13.998Z,71.31
2022-11-15T23:22:02.175Z,71.13
2022-11-15T23:24:31.509Z,71.09
2022-11-15T23:27:01.590Z,71.20
2022-11-15T23:29:30.841Z,71.09
2022-11-15T23:32:17.798Z,71.14
2022-11-15T23:34:47.408Z,71.42
2022-11-15T23:37:16.611Z,71.00
2022-11-15T23:39:45.023Z,71.33
2022-11-15T23:42:19.713Z,71.23
2022-11-15T23:44:50.007Z,71.40
2022-11-15T23:47:19.573Z,71.88
2022-11-15T23:49:47.691Z,71.84
2022-11-15T23:52:16.879Z,72.12
2022-11-15T23:54:45.404Z,72.22
2022-11-15T23:57:13.983Z,72.47
2022-11-15T23:59:44.186Z,72.82
